Aviation Digital Data Service (ADDS)

Output produced by METARs form (1856 UTC 26 March 2017)
found at http://aviationweather.gov/adds/metars/
 
KGSO 261726Z 2618/2718 19010G19KT P6SM BKN040 
     TEMPO 2619/2621 6SM -SHRA SCT025 BKN035 
     FM270000 17005KT P6SM BKN050 
     TEMPO 2712/2714 BKN018 
     FM271400 21006KT P6SM BKN025